sensor_id;sensor_type;location;lat;lon;timestamp;pressure;altitude;pressure_sealevel;temperature;humidity
21547;BME280;41275;51.912;4.388;2022-10-31T00:01:55;102021.22;;;20.17;50.66
21547;BME280;41275;51.912;4.388;2022-10-31T00:07:16;102015.81;;;20.12;50.79
21547;BME280;41275;51.912;4.388;2022-10-31T00:12:37;102027.34;;;20.07;50.82
21547;BME280;41275;51.912;4.388;2022-10-31T00:17:58;102021.38;;;19.95;51.37
21547;BME280;41275;51.912;4.388;2022-10-31T00:23:20;102022.13;;;19.85;51.39
21547;BME280;41275;51.912;4.388;2022-10-31T00:28:41;102023.44;;;19.83;51.46
21547;BME280;41275;51.912;4.388;2022-10-31T00:34:03;102026.06;;;19.73;51.67
21547;BME280;41275;51.912;4.388;2022-10-31T00:39:24;102030.91;;;19.76;51.90
21547;BME280;41275;51.912;4.388;2022-10-31T00:44:45;102042.75;;;19.80;52.00
21547;BME280;41275;51.912;4.388;2022-10-31T00:50:07;102030.97;;;19.81;52.26
21547;BME280;41275;51.912;4.388;2022-10-31T00:55:28;102019.38;;;19.80;52.40
21547;BME280;41275;51.912;4.388;2022-10-31T01:00:50;102001.88;;;19.73;52.40
21547;BME280;41275;51.912;4.388;2022-10-31T01:06:17;102019.84;;;19.67;52.68
21547;BME280;41275;51.912;4.388;2022-10-31T01:11:38;102022.25;;;19.64;52.86
21547;BME280;41275;51.912;4.388;2022-10-31T01:16:59;102015.41;;;19.51;53.18
21547;BME280;41275;51.912;4.388;2022-10-31T01:22:20;102005.19;;;19.48;53.34
21547;BME280;41275;51.912;4.388;2022-10-31T01:27:42;102009.72;;;19.42;53.39
21547;BME280;41275;51.912;4.388;2022-10-31T01:33:03;102007.25;;;19.35;53.47
21547;BME280;41275;51.912;4.388;2022-10-31T01:38:24;101998.28;;;19.25;53.73
21547;BME280;41275;51.912;4.388;2022-10-31T01:49:17;101986.91;;;19.12;54.07
21547;BME280;41275;51.912;4.388;2022-10-31T01:54:44;101990.56;;;19.01;53.93
21547;BME280;41275;51.912;4.388;2022-10-31T02:00:09;101991.03;;;18.93;54.18
21547;BME280;41275;51.912;4.388;2022-10-31T02:05:30;101986.22;;;18.95;54.22
21547;BME280;41275;51.912;4.388;2022-10-31T02:10:52;101989.91;;;18.89;54.18
21547;BME280;41275;51.912;4.388;2022-10-31T02:16:14;101988.19;;;18.78;54.47
21547;BME280;41275;51.912;4.388;2022-10-31T02:21:44;101997.72;;;18.69;54.91
21547;BME280;41275;51.912;4.388;2022-10-31T02:33:23;101986.88;;;18.58;55.33
21547;BME280;41275;51.912;4.388;2022-10-31T02:39:02;101979.28;;;18.50;55.34
21547;BME280;41275;51.912;4.388;2022-10-31T02:44:35;101987.84;;;18.47;55.77
21547;BME280;41275;51.912;4.388;2022-10-31T02:50:04;101988.91;;;18.46;55.83
21547;BME280;41275;51.912;4.388;2022-10-31T03:01:07;101985.59;;;18.39;56.30
21547;BME280;41275;51.912;4.388;2022-10-31T03:12:07;101989.28;;;18.33;56.24
21547;BME280;41275;51.912;4.388;2022-10-31T03:18:08;101993.25;;;18.30;56.25
21547;BME280;41275;51.912;4.388;2022-10-31T03:23:32;101992.72;;;18.28;56.21
21547;BME280;41275;51.912;4.388;2022-10-31T03:29:03;101990.28;;;18.27;56.68
21547;BME280;41275;51.912;4.388;2022-10-31T03:34:27;101987.53;;;18.22;56.62
21547;BME280;41275;51.912;4.388;2022-10-31T03:39:49;101985.91;;;18.21;56.40
21547;BME280;41275;51.912;4.388;2022-10-31T03:45:14;101988.28;;;18.17;56.52
21547;BME280;41275;51.912;4.388;2022-10-31T03:50:42;101985.03;;;18.15;56.84
21547;BME280;41275;51.912;4.388;2022-10-31T03:56:12;101985.56;;;18.12;57.13
21547;BME280;41275;51.912;4.388;2022-10-31T04:01:41;101979.63;;;18.10;57.09
21547;BME280;41275;51.912;4.388;2022-10-31T04:07:05;101982.28;;;18.10;57.16
21547;BME280;41275;51.912;4.388;2022-10-31T04:12:29;101977.00;;;18.15;56.91
21547;BME280;41275;51.912;4.388;2022-10-31T04:17:54;101989.09;;;18.18;56.89
21547;BME280;41275;51.912;4.388;2022-10-31T04:23:25;101981.63;;;18.20;57.34
21547;BME280;41275;51.912;4.388;2022-10-31T04:28:47;101981.88;;;18.18;57.28
21547;BME280;41275;51.912;4.388;2022-10-31T04:34:08;101978.94;;;18.20;57.11
21547;BME280;41275;51.912;4.388;2022-10-31T04:39:30;101978.38;;;18.18;57.03
21547;BME280;41275;51.912;4.388;2022-10-31T04:44:51;101982.94;;;18.17;57.33
21547;BME280;41275;51.912;4.388;2022-10-31T04:50:12;101978.94;;;18.20;57.13
21547;BME280;41275;51.912;4.388;2022-10-31T04:55:35;101973.81;;;18.18;56.96
21547;BME280;41275;51.912;4.388;2022-10-31T05:00:56;101975.13;;;18.15;57.19
21547;BME280;41275;51.912;4.388;2022-10-31T05:06:17;101961.66;;;18.10;56.98
21547;BME280;41275;51.912;4.388;2022-10-31T05:11:39;101959.25;;;18.09;56.89
21547;BME280;41275;51.912;4.388;2022-10-31T05:17:00;101946.34;;;18.06;57.15
21547;BME280;41275;51.912;4.388;2022-10-31T05:22:21;101945.53;;;18.05;57.25
21547;BME280;41275;51.912;4.388;2022-10-31T05:27:45;101942.56;;;18.02;57.23
21547;BME280;41275;51.912;4.388;2022-10-31T05:33:08;101937.13;;;17.97;57.03
21547;BME280;41275;51.912;4.388;2022-10-31T05:38:30;101933.81;;;17.89;57.13
21547;BME280;41275;51.912;4.388;2022-10-31T05:43:51;101939.94;;;17.85;57.26
21547;BME280;41275;51.912;4.388;2022-10-31T05:49:12;101936.63;;;17.78;57.30
21547;BME280;41275;51.912;4.388;2022-10-31T05:54:35;101947.56;;;17.76;57.47
21547;BME280;41275;51.912;4.388;2022-10-31T05:59:56;101940.00;;;17.73;57.46
21547;BME280;41275;51.912;4.388;2022-10-31T06:05:17;101936.22;;;17.69;57.31
21547;BME280;41275;51.912;4.388;2022-10-31T06:10:39;101924.88;;;17.62;57.49
21547;BME280;41275;51.912;4.388;2022-10-31T06:16:00;101942.78;;;17.61;57.63
21547;BME280;41275;51.912;4.388;2022-10-31T06:21:21;101941.56;;;17.52;57.30
21547;BME280;41275;51.912;4.388;2022-10-31T06:26:42;101950.09;;;17.49;57.32
21547;BME280;41275;51.912;4.388;2022-10-31T06:32:04;101941.50;;;17.47;57.39
21547;BME280;41275;51.912;4.388;2022-10-31T06:37:25;101937.75;;;17.48;57.54
21547;BME280;41275;51.912;4.388;2022-10-31T06:42:46;101945.78;;;17.48;57.80
21547;BME280;41275;51.912;4.388;2022-10-31T06:48:07;101939.97;;;17.51;57.95
21547;BME280;41275;51.912;4.388;2022-10-31T06:53:29;101950.66;;;17.51;57.65
21547;BME280;41275;51.912;4.388;2022-10-31T06:58:53;101959.88;;;17.60;58.20
21547;BME280;41275;51.912;4.388;2022-10-31T07:04:14;101961.66;;;17.72;57.94
21547;BME280;41275;51.912;4.388;2022-10-31T07:09:35;101956.50;;;17.82;58.28
21547;BME280;41275;51.912;4.388;2022-10-31T07:14:57;101966.50;;;17.91;58.30
21547;BME280;41275;51.912;4.388;2022-10-31T07:20:18;101971.69;;;17.98;58.39
21547;BME280;41275;51.912;4.388;2022-10-31T07:25:40;101972.06;;;18.07;58.19
21547;BME280;41275;51.912;4.388;2022-10-31T07:31:01;101971.91;;;18.13;58.35
21547;BME280;41275;51.912;4.388;2022-10-31T07:36:22;101973.59;;;18.20;58.29
21547;BME280;41275;51.912;4.388;2022-10-31T07:41:43;101965.56;;;18.20;58.23
21547;BME280;41275;51.912;4.388;2022-10-31T07:47:05;101955.06;;;18.18;58.29
21547;BME280;41275;51.912;4.388;2022-10-31T07:52:26;101955.81;;;18.13;58.27
21547;BME280;41275;51.912;4.388;2022-10-31T07:57:55;101963.28;;;18.11;57.69
21547;BME280;41275;51.912;4.388;2022-10-31T08:03:18;101956.88;;;18.12;58.03
21547;BME280;41275;51.912;4.388;2022-10-31T08:08:40;101959.13;;;18.21;57.83
21547;BME280;41275;51.912;4.388;2022-10-31T08:14:01;101949.41;;;18.36;57.82
21547;BME280;41275;51.912;4.388;2022-10-31T08:19:22;101953.75;;;18.43;57.72
21547;BME280;41275;51.912;4.388;2022-10-31T08:24:43;101966.16;;;18.49;57.37
21547;BME280;41275;51.912;4.388;2022-10-31T08:30:05;101964.31;;;18.54;57.44
21547;BME280;41275;51.912;4.388;2022-10-31T08:35:27;101968.84;;;18.71;57.57
21547;BME280;41275;51.912;4.388;2022-10-31T08:40:48;101963.66;;;18.91;57.41
21547;BME280;41275;51.912;4.388;2022-10-31T08:46:10;101971.19;;;18.94;57.75
21547;BME280;41275;51.912;4.388;2022-10-31T08:51:31;101955.22;;;19.09;57.68
21547;BME280;41275;51.912;4.388;2022-10-31T08:56:56;101950.56;;;19.32;57.56
21547;BME280;41275;51.912;4.388;2022-10-31T09:02:17;101934.09;;;19.60;56.92
21547;BME280;41275;51.912;4.388;2022-10-31T09:07:38;101930.28;;;19.89;56.39
21547;BME280;41275;51.912;4.388;2022-10-31T09:13:10;101925.72;;;19.94;56.03
21547;BME280;41275;51.912;4.388;2022-10-31T09:18:32;101915.28;;;19.98;55.67
21547;BME280;41275;51.912;4.388;2022-10-31T09:23:53;101909.38;;;20.06;55.40
21547;BME280;41275;51.912;4.388;2022-10-31T09:29:15;101899.53;;;20.37;54.98
21547;BME280;41275;51.912;4.388;2022-10-31T09:34:36;101892.59;;;20.62;54.70
21547;BME280;41275;51.912;4.388;2022-10-31T09:39:57;101894.75;;;20.75;54.27
21547;BME280;41275;51.912;4.388;2022-10-31T09:45:41;101892.09;;;20.95;53.90
21547;BME280;41275;51.912;4.388;2022-10-31T09:51:08;101875.63;;;21.02;53.43
21547;BME280;41275;51.912;4.388;2022-10-31T09:56:32;101869.75;;;20.95;53.47
21547;BME280;41275;51.912;4.388;2022-10-31T10:02:00;101855.75;;;20.82;53.75
21547;BME280;41275;51.912;4.388;2022-10-31T10:19:21;101836.50;;;21.66;53.71
21547;BME280;41275;51.912;4.388;2022-10-31T10:30:30;101821.16;;;22.79;50.90
21547;BME280;41275;51.912;4.388;2022-10-31T10:36:03;101810.28;;;22.89;49.69
21547;BME280;41275;51.912;4.388;2022-10-31T10:41:30;101811.63;;;22.92;49.41
21547;BME280;41275;51.912;4.388;2022-10-31T10:46:55;101806.78;;;22.89;49.30
21547;BME280;41275;51.912;4.388;2022-10-31T10:58:42;101801.66;;;23.16;48.32
21547;BME280;41275;51.912;4.388;2022-10-31T11:04:31;101787.50;;;23.24;47.84
21547;BME280;41275;51.912;4.388;2022-10-31T11:09:50;101789.09;;;23.31;47.79
21547;BME280;41275;51.912;4.388;2022-10-31T11:15:23;101778.63;;;23.24;47.91
21547;BME280;41275;51.912;4.388;2022-10-31T11:20:51;101785.97;;;22.89;48.59
21547;BME280;41275;51.912;4.388;2022-10-31T11:26:20;101778.81;;;22.79;49.08
21547;BME280;41275;51.912;4.388;2022-10-31T11:31:41;101756.75;;;22.72;49.73
21547;BME280;41275;51.912;4.388;2022-10-31T11:37:22;101742.63;;;22.81;50.32
21547;BME280;41275;51.912;4.388;2022-10-31T11:42:48;101742.25;;;22.92;50.41
21547;BME280;41275;51.912;4.388;2022-10-31T11:48:19;101743.94;;;23.12;49.94
21547;BME280;41275;51.912;4.388;2022-10-31T11:53:50;101736.59;;;23.56;49.67
21547;BME280;41275;51.912;4.388;2022-10-31T11:59:17;101707.63;;;23.80;48.97
21547;BME280;41275;51.912;4.388;2022-10-31T12:04:43;101680.81;;;23.84;48.84
21547;BME280;41275;51.912;4.388;2022-10-31T12:10:13;101663.28;;;24.14;48.55
21547;BME280;41275;51.912;4.388;2022-10-31T12:15:36;101663.44;;;24.64;47.96
21547;BME280;41275;51.912;4.388;2022-10-31T12:21:16;101651.03;;;24.77;47.03
21547;BME280;41275;51.912;4.388;2022-10-31T12:27:06;101627.22;;;25.51;46.56
21547;BME280;41275;51.912;4.388;2022-10-31T12:32:41;101612.13;;;26.12;45.56
21547;BME280;41275;51.912;4.388;2022-10-31T12:38:12;101595.16;;;25.98;44.17
21547;BME280;41275;51.912;4.388;2022-10-31T12:44:02;101576.47;;;25.43;44.81
21547;BME280;41275;51.912;4.388;2022-10-31T12:49:38;101559.34;;;24.97;45.56
21547;BME280;41275;51.912;4.388;2022-10-31T13:01:12;101537.88;;;24.37;47.06
21547;BME280;41275;51.912;4.388;2022-10-31T13:06:40;101533.00;;;24.25;47.49
21547;BME280;41275;51.912;4.388;2022-10-31T13:12:11;101519.25;;;24.08;47.56
21547;BME280;41275;51.912;4.388;2022-10-31T13:17:39;101517.16;;;24.05;48.15
21547;BME280;41275;51.912;4.388;2022-10-31T13:29:22;101494.53;;;23.87;48.75
21547;BME280;41275;51.912;4.388;2022-10-31T13:34:50;101480.09;;;23.92;49.04
21547;BME280;41275;51.912;4.388;2022-10-31T13:40:42;101481.19;;;23.77;49.15
21547;BME280;41275;51.912;4.388;2022-10-31T13:46:22;101463.44;;;23.57;49.28
21547;BME280;41275;51.912;4.388;2022-10-31T13:51:44;101452.50;;;23.48;49.50
21547;BME280;41275;51.912;4.388;2022-10-31T13:57:31;101444.09;;;23.50;49.99
21547;BME280;41275;51.912;4.388;2022-10-31T14:02:56;101442.22;;;23.50;50.10
21547;BME280;41275;51.912;4.388;2022-10-31T14:08:20;101425.19;;;23.50;49.98
21547;BME280;41275;51.912;4.388;2022-10-31T14:13:44;101401.09;;;23.53;50.23
21547;BME280;41275;51.912;4.388;2022-10-31T14:19:13;101397.78;;;23.57;49.95
21547;BME280;41275;51.912;4.388;2022-10-31T14:24:36;101374.06;;;23.53;50.21
21547;BME280;41275;51.912;4.388;2022-10-31T14:30:10;101361.56;;;23.58;50.18
21547;BME280;41275;51.912;4.388;2022-10-31T14:35:50;101353.06;;;23.64;50.27
21547;BME280;41275;51.912;4.388;2022-10-31T14:47:10;101334.38;;;23.54;50.15
21547;BME280;41275;51.912;4.388;2022-10-31T14:52:36;101324.44;;;23.49;50.33
21547;BME280;41275;51.912;4.388;2022-10-31T14:58:01;101312.84;;;23.49;50.14
21547;BME280;41275;51.912;4.388;2022-10-31T15:08:56;101295.38;;;23.46;50.57
21547;BME280;41275;51.912;4.388;2022-10-31T15:14:28;101296.34;;;23.37;50.61
21547;BME280;41275;51.912;4.388;2022-10-31T15:19:50;101291.66;;;23.28;50.93
21547;BME280;41275;51.912;4.388;2022-10-31T15:25:17;101271.25;;;23.22;51.28
21547;BME280;41275;51.912;4.388;2022-10-31T15:30:39;101255.94;;;23.18;51.53
21547;BME280;41275;51.912;4.388;2022-10-31T15:36:01;101259.88;;;23.12;51.60
21547;BME280;41275;51.912;4.388;2022-10-31T15:41:35;101247.06;;;23.03;52.05
21547;BME280;41275;51.912;4.388;2022-10-31T15:47:05;101249.38;;;22.96;51.93
21547;BME280;41275;51.912;4.388;2022-10-31T15:52:41;101248.22;;;22.84;52.23
21547;BME280;41275;51.912;4.388;2022-10-31T15:58:14;101225.13;;;22.77;52.21
21547;BME280;41275;51.912;4.388;2022-10-31T16:03:36;101214.13;;;22.74;52.59
21547;BME280;41275;51.912;4.388;2022-10-31T16:08:57;101202.63;;;22.68;52.87
21547;BME280;41275;51.912;4.388;2022-10-31T16:14:22;101199.94;;;22.68;52.77
21547;BME280;41275;51.912;4.388;2022-10-31T16:19:49;101200.84;;;22.64;53.09
21547;BME280;41275;51.912;4.388;2022-10-31T16:25:13;101193.81;;;22.63;53.09
21547;BME280;41275;51.912;4.388;2022-10-31T16:30:42;101186.03;;;22.61;53.09
21547;BME280;41275;51.912;4.388;2022-10-31T16:36:30;101176.34;;;22.60;53.02
21547;BME280;41275;51.912;4.388;2022-10-31T16:41:55;101175.63;;;22.54;53.00
21547;BME280;41275;51.912;4.388;2022-10-31T16:47:17;101178.22;;;22.46;53.17
21547;BME280;41275;51.912;4.388;2022-10-31T16:52:38;101172.31;;;22.30;53.38
21547;BME280;41275;51.912;4.388;2022-10-31T16:57:59;101156.94;;;22.12;53.52
21547;BME280;41275;51.912;4.388;2022-10-31T17:03:21;101135.94;;;21.95;53.94
21547;BME280;41275;51.912;4.388;2022-10-31T17:08:42;101118.13;;;21.80;54.16
21547;BME280;41275;51.912;4.388;2022-10-31T17:14:03;101108.34;;;21.70;54.50
21547;BME280;41275;51.912;4.388;2022-10-31T17:19:25;101116.47;;;21.65;54.44
21547;BME280;41275;51.912;4.388;2022-10-31T17:24:46;101114.97;;;21.59;54.45
21547;BME280;41275;51.912;4.388;2022-10-31T17:30:08;101098.97;;;21.49;54.30
21547;BME280;41275;51.912;4.388;2022-10-31T17:35:29;101106.81;;;21.45;54.34
21547;BME280;41275;51.912;4.388;2022-10-31T17:40:51;101110.63;;;21.44;54.09
21547;BME280;41275;51.912;4.388;2022-10-31T17:46:12;101108.22;;;21.43;54.12
21547;BME280;41275;51.912;4.388;2022-10-31T17:51:34;101088.84;;;21.41;54.23
21547;BME280;41275;51.912;4.388;2022-10-31T17:56:55;101087.47;;;21.43;53.92
21547;BME280;41275;51.912;4.388;2022-10-31T18:02:16;101069.78;;;21.37;53.76
21547;BME280;41275;51.912;4.388;2022-10-31T18:07:37;101056.94;;;21.34;53.83
21547;BME280;41275;51.912;4.388;2022-10-31T18:12:59;101036.22;;;21.29;53.86
21547;BME280;41275;51.912;4.388;2022-10-31T18:18:20;101044.59;;;21.28;53.95
21547;BME280;41275;51.912;4.388;2022-10-31T18:23:41;101043.66;;;21.38;53.83
21547;BME280;41275;51.912;4.388;2022-10-31T18:29:03;101028.63;;;21.37;53.76
21547;BME280;41275;51.912;4.388;2022-10-31T18:34:24;101037.50;;;21.37;53.60
21547;BME280;41275;51.912;4.388;2022-10-31T18:39:46;101032.72;;;21.34;53.52
21547;BME280;41275;51.912;4.388;2022-10-31T18:45:07;101020.59;;;21.31;53.43
21547;BME280;41275;51.912;4.388;2022-10-31T18:50:28;101019.59;;;21.27;53.14
21547;BME280;41275;51.912;4.388;2022-10-31T18:55:50;101015.09;;;21.23;53.39
21547;BME280;41275;51.912;4.388;2022-10-31T19:01:12;101004.31;;;21.23;53.45
21547;BME280;41275;51.912;4.388;2022-10-31T19:06:33;100990.66;;;21.19;53.45
21547;BME280;41275;51.912;4.388;2022-10-31T19:11:54;100990.94;;;21.18;53.54
21547;BME280;41275;51.912;4.388;2022-10-31T19:17:16;100986.88;;;21.20;53.89
21547;BME280;41275;51.912;4.388;2022-10-31T19:22:37;100985.28;;;21.19;53.67
21547;BME280;41275;51.912;4.388;2022-10-31T19:27:58;100977.69;;;21.21;53.42
21547;BME280;41275;51.912;4.388;2022-10-31T19:33:20;100957.97;;;21.26;53.38
21547;BME280;41275;51.912;4.388;2022-10-31T19:38:43;100964.66;;;21.28;53.41
21547;BME280;41275;51.912;4.388;2022-10-31T19:44:04;100950.91;;;21.30;53.08
21547;BME280;41275;51.912;4.388;2022-10-31T19:49:26;100954.19;;;21.27;53.11
21547;BME280;41275;51.912;4.388;2022-10-31T19:54:47;100959.66;;;21.22;52.95
21547;BME280;41275;51.912;4.388;2022-10-31T20:00:09;100952.19;;;21.19;53.14
21547;BME280;41275;51.912;4.388;2022-10-31T20:05:31;100950.28;;;21.19;53.07
21547;BME280;41275;51.912;4.388;2022-10-31T20:10:57;100934.34;;;21.23;53.13
21547;BME280;41275;51.912;4.388;2022-10-31T20:16:19;100916.09;;;21.20;52.89
21547;BME280;41275;51.912;4.388;2022-10-31T20:21:40;100916.41;;;21.32;52.79
21547;BME280;41275;51.912;4.388;2022-10-31T20:27:01;100914.28;;;21.34;52.55
21547;BME280;41275;51.912;4.388;2022-10-31T20:32:24;100908.78;;;21.39;52.33
21547;BME280;41275;51.912;4.388;2022-10-31T20:37:45;100899.03;;;21.43;52.17
21547;BME280;41275;51.912;4.388;2022-10-31T20:43:06;100898.91;;;21.48;52.07
21547;BME280;41275;51.912;4.388;2022-10-31T20:48:28;100883.56;;;21.49;51.58
21547;BME280;41275;51.912;4.388;2022-10-31T20:53:51;100886.34;;;21.44;51.78
21547;BME280;41275;51.912;4.388;2022-10-31T20:59:12;100867.09;;;21.37;51.78
21547;BME280;41275;51.912;4.388;2022-10-31T21:04:35;100853.94;;;21.35;51.69
21547;BME280;41275;51.912;4.388;2022-10-31T21:09:56;100850.84;;;21.42;51.74
21547;BME280;41275;51.912;4.388;2022-10-31T21:15:17;100842.91;;;21.50;51.43
21547;BME280;41275;51.912;4.388;2022-10-31T21:20:40;100844.28;;;21.62;51.34
21547;BME280;41275;51.912;4.388;2022-10-31T21:26:08;100838.41;;;21.73;50.93
21547;BME280;41275;51.912;4.388;2022-10-31T21:31:29;100840.88;;;21.84;50.63
21547;BME280;41275;51.912;4.388;2022-10-31T21:36:51;100844.44;;;21.93;50.41
21547;BME280;41275;51.912;4.388;2022-10-31T21:42:12;100847.53;;;22.00;50.28
21547;BME280;41275;51.912;4.388;2022-10-31T21:47:33;100842.25;;;22.09;49.81
21547;BME280;41275;51.912;4.388;2022-10-31T21:52:56;100833.94;;;22.19;49.79
21547;BME280;41275;51.912;4.388;2022-10-31T21:58:37;100826.66;;;22.19;50.09
21547;BME280;41275;51.912;4.388;2022-10-31T22:03:58;100822.97;;;22.15;50.38
21547;BME280;41275;51.912;4.388;2022-10-31T22:09:20;100824.47;;;22.08;50.90
21547;BME280;41275;51.912;4.388;2022-10-31T22:14:43;100808.41;;;22.02;51.22
21547;BME280;41275;51.912;4.388;2022-10-31T22:20:04;100804.13;;;22.01;51.59
21547;BME280;41275;51.912;4.388;2022-10-31T22:25:26;100788.88;;;21.97;51.81
21547;BME280;41275;51.912;4.388;2022-10-31T22:30:47;100770.44;;;21.90;52.09
21547;BME280;41275;51.912;4.388;2022-10-31T22:36:11;100765.16;;;21.85;51.89
21547;BME280;41275;51.912;4.388;2022-10-31T22:41:34;100767.34;;;21.83;51.89
21547;BME280;41275;51.912;4.388;2022-10-31T22:46:55;100758.47;;;21.83;52.37
21547;BME280;41275;51.912;4.388;2022-10-31T22:52:17;100744.09;;;21.87;52.41
21547;BME280;41275;51.912;4.388;2022-10-31T22:57:38;100726.63;;;21.85;52.46
21547;BME280;41275;51.912;4.388;2022-10-31T23:02:59;100723.25;;;21.79;52.88
21547;BME280;41275;51.912;4.388;2022-10-31T23:08:20;100710.41;;;21.76;52.91
21547;BME280;41275;51.912;4.388;2022-10-31T23:13:43;100711.38;;;21.80;53.09
21547;BME280;41275;51.912;4.388;2022-10-31T23:19:28;100691.00;;;21.88;52.91
21547;BME280;41275;51.912;4.388;2022-10-31T23:24:49;100694.06;;;21.95;52.68
21547;BME280;41275;51.912;4.388;2022-10-31T23:30:10;100675.78;;;22.05;52.65
21547;BME280;41275;51.912;4.388;2022-10-31T23:35:32;100674.84;;;22.10;52.38
21547;BME280;41275;51.912;4.388;2022-10-31T23:40:53;100659.97;;;22.13;52.46
21547;BME280;41275;51.912;4.388;2022-10-31T23:46:14;100671.75;;;22.17;52.34
21547;BME280;41275;51.912;4.388;2022-10-31T23:51:36;100670.81;;;22.21;52.37
21547;BME280;41275;51.912;4.388;2022-10-31T23:56:57;100664.31;;;22.22;52.35
